ポンペイ島 の空港の天気 - METARとTAF

ポンペイ国際空港 ( PTPN / PNI ) - ミクロネシア連邦 ポンペイ島
飛行場実況気象(Metar)
観測時間05/20 11:53 +11 (05/20 00:53 UTC)
風向・風速東北東 5m/s
視程10km以上
天気現象
全天の4割程度の雲 雲底高度 550m
全天の8割程度の雲 雲底高度 9140m
気温32℃
湿度71%
気圧1009hPa
METARPTPN 200053Z 06010KT 15SM SCT018TCU BKN300 32/26 A2980 RMK TCU SE-S
過去の天気等 Google飛行場航空写真 Wunderground天気予報

過去48時間のMETAR

飛行場予報(TAF)
発表時間: 5/20 10:24 +11 (5/19 23:24 UTC)
予報対象時間: 20日11時 +11 ~ 21日11時 +11
風向・風速北東 6m/s
視程10km以上
全天の4割程度の雲 雲底高度 550m
PTPN 192324Z 2000/2024 05011KT P6SM SCT018